Terminal Aerodrome Forecast
Issued by NWS

Home | Current Version | Previous Version | Text Only | Print | Product List | Glossary On
Versions: 1 2 3 4 5 6 7 8 9 10 11 12 13 14 15 16 17
000
FTUS46 KSGX 071309 AAA
TAFCRQ
TAF AMD
KCRQ 071309Z 0713/0812 VRB04KT P6SM OVC014
      TEMPO 0713/0717 3SM -DZ BR BKN007
     FM072100 25008KT P6SM BKN018
     FM080100 VRB04KT P6SM OVC015=

USA.gov is the U.S. government's official web portal to all federal, state and local government web resources and services.